sensor_id;sensor_type;location;lat;lon;timestamp;P1;durP1;ratioP1;P2;durP2;ratioP2
69765;SDS011;57039;48.014;21.384;2023-02-01T00:14:44;70.35;;;22.23;;
69765;SDS011;57039;48.014;21.384;2023-02-01T00:15:46;40.12;;;13.27;;
69765;SDS011;57039;48.014;21.384;2023-02-01T00:16:49;75.87;;;22.17;;
69765;SDS011;57039;48.014;21.384;2023-02-01T00:17:55;65.70;;;20.08;;
69765;SDS011;57039;48.014;21.384;2023-02-01T00:19:01;65.75;;;19.77;;
69765;SDS011;57039;48.014;21.384;2023-02-01T00:20:04;32.80;;;11.20;;
69765;SDS011;57039;48.014;21.384;2023-02-01T00:21:07;79.57;;;23.87;;
69765;SDS011;57039;48.014;21.384;2023-02-01T00:22:11;83.53;;;23.00;;
69765;SDS011;57039;48.014;21.384;2023-02-01T00:23:14;87.68;;;26.98;;
69765;SDS011;57039;48.014;21.384;2023-02-01T00:24:16;70.43;;;23.73;;
69765;SDS011;57039;48.014;21.384;2023-02-01T00:25:19;104.70;;;31.55;;
69765;SDS011;57039;48.014;21.384;2023-02-01T00:26:43;197.55;;;54.92;;
69765;SDS011;57039;48.014;21.384;2023-02-01T00:27:48;85.28;;;25.23;;
69765;SDS011;57039;48.014;21.384;2023-02-01T00:28:50;154.38;;;42.97;;
69765;SDS011;57039;48.014;21.384;2023-02-01T00:29:54;147.93;;;40.20;;
69765;SDS011;57039;48.014;21.384;2023-02-01T00:31:00;82.60;;;24.35;;
69765;SDS011;57039;48.014;21.384;2023-02-01T00:32:03;134.57;;;38.47;;
69765;SDS011;57039;48.014;21.384;2023-02-01T00:33:05;173.62;;;47.15;;
69765;SDS011;57039;48.014;21.384;2023-02-01T00:34:08;54.30;;;16.80;;
69765;SDS011;57039;48.014;21.384;2023-02-01T00:35:12;163.77;;;46.13;;
69765;SDS011;57039;48.014;21.384;2023-02-01T00:36:14;191.05;;;53.53;;
69765;SDS011;57039;48.014;21.384;2023-02-01T00:37:17;85.25;;;30.60;;
69765;SDS011;57039;48.014;21.384;2023-02-01T00:38:19;31.52;;;13.70;;
69765;SDS011;57039;48.014;21.384;2023-02-01T00:39:22;31.95;;;14.35;;
69765;SDS011;57039;48.014;21.384;2023-02-01T00:40:24;31.30;;;16.37;;
69765;SDS011;57039;48.014;21.384;2023-02-01T00:41:27;17.20;;;7.18;;
69765;SDS011;57039;48.014;21.384;2023-02-01T00:42:29;18.85;;;10.85;;
69765;SDS011;57039;48.014;21.384;2023-02-01T00:43:32;24.73;;;14.65;;
69765;SDS011;57039;48.014;21.384;2023-02-01T00:44:35;29.08;;;17.95;;
69765;SDS011;57039;48.014;21.384;2023-02-01T00:45:37;14.37;;;7.30;;
69765;SDS011;57039;48.014;21.384;2023-02-01T00:46:40;19.73;;;10.48;;
69765;SDS011;57039;48.014;21.384;2023-02-01T00:47:43;13.62;;;6.65;;
69765;SDS011;57039;48.014;21.384;2023-02-01T00:48:45;19.10;;;8.55;;
69765;SDS011;57039;48.014;21.384;2023-02-01T00:49:48;31.95;;;17.00;;
69765;SDS011;57039;48.014;21.384;2023-02-01T00:50:50;24.73;;;12.48;;
69765;SDS011;57039;48.014;21.384;2023-02-01T00:51:53;31.05;;;15.50;;
69765;SDS011;57039;48.014;21.384;2023-02-01T00:52:55;20.65;;;10.98;;
69765;SDS011;57039;48.014;21.384;2023-02-01T00:53:58;19.75;;;9.18;;
69765;SDS011;57039;48.014;21.384;2023-02-01T00:55:00;25.62;;;15.10;;
69765;SDS011;57039;48.014;21.384;2023-02-01T00:56:03;15.30;;;7.87;;
69765;SDS011;57039;48.014;21.384;2023-02-01T00:57:07;17.37;;;9.88;;
69765;SDS011;57039;48.014;21.384;2023-02-01T00:58:10;22.40;;;11.02;;
69765;SDS011;57039;48.014;21.384;2023-02-01T00:59:13;18.40;;;9.43;;
69765;SDS011;57039;48.014;21.384;2023-02-01T01:00:16;30.02;;;17.27;;
69765;SDS011;57039;48.014;21.384;2023-02-01T01:01:20;17.75;;;9.65;;
69765;SDS011;57039;48.014;21.384;2023-02-01T01:02:23;10.65;;;6.25;;
69765;SDS011;57039;48.014;21.384;2023-02-01T01:03:28;11.43;;;6.95;;
69765;SDS011;57039;48.014;21.384;2023-02-01T01:04:31;9.63;;;4.55;;
69765;SDS011;57039;48.014;21.384;2023-02-01T01:05:34;11.55;;;5.18;;
69765;SDS011;57039;48.014;21.384;2023-02-01T01:06:36;11.30;;;4.67;;
69765;SDS011;57039;48.014;21.384;2023-02-01T01:07:39;12.30;;;5.10;;
69765;SDS011;57039;48.014;21.384;2023-02-01T01:08:43;12.98;;;5.53;;
69765;SDS011;57039;48.014;21.384;2023-02-01T01:09:46;7.72;;;5.30;;
69765;SDS011;57039;48.014;21.384;2023-02-01T01:10:48;13.93;;;5.40;;
69765;SDS011;57039;48.014;21.384;2023-02-01T01:11:51;10.98;;;5.32;;
69765;SDS011;57039;48.014;21.384;2023-02-01T01:12:54;13.13;;;5.22;;
69765;SDS011;57039;48.014;21.384;2023-02-01T01:13:58;9.85;;;4.40;;
69765;SDS011;57039;48.014;21.384;2023-02-01T01:15:00;7.85;;;3.75;;
69765;SDS011;57039;48.014;21.384;2023-02-01T01:16:05;8.77;;;3.67;;
69765;SDS011;57039;48.014;21.384;2023-02-01T01:17:08;7.17;;;4.10;;
69765;SDS011;57039;48.014;21.384;2023-02-01T01:18:11;9.82;;;5.15;;
69765;SDS011;57039;48.014;21.384;2023-02-01T01:19:14;12.68;;;4.80;;
69765;SDS011;57039;48.014;21.384;2023-02-01T01:20:16;12.32;;;4.43;;
69765;SDS011;57039;48.014;21.384;2023-02-01T01:21:19;8.95;;;4.15;;
69765;SDS011;57039;48.014;21.384;2023-02-01T01:22:21;9.95;;;4.30;;
69765;SDS011;57039;48.014;21.384;2023-02-01T01:23:24;12.40;;;5.12;;
69765;SDS011;57039;48.014;21.384;2023-02-01T01:24:27;10.00;;;4.47;;
69765;SDS011;57039;48.014;21.384;2023-02-01T01:25:29;9.77;;;4.28;;
69765;SDS011;57039;48.014;21.384;2023-02-01T01:26:32;10.90;;;4.85;;
69765;SDS011;57039;48.014;21.384;2023-02-01T01:27:34;13.17;;;4.50;;
69765;SDS011;57039;48.014;21.384;2023-02-01T01:28:36;7.80;;;4.10;;
69765;SDS011;57039;48.014;21.384;2023-02-01T01:29:39;10.15;;;4.78;;
69765;SDS011;57039;48.014;21.384;2023-02-01T01:30:41;12.75;;;4.87;;
69765;SDS011;57039;48.014;21.384;2023-02-01T01:31:44;12.45;;;4.30;;
69765;SDS011;57039;48.014;21.384;2023-02-01T01:32:46;10.23;;;4.20;;
69765;SDS011;57039;48.014;21.384;2023-02-01T01:33:49;13.38;;;4.62;;
69765;SDS011;57039;48.014;21.384;2023-02-01T01:34:52;11.75;;;4.82;;
69765;SDS011;57039;48.014;21.384;2023-02-01T01:35:55;11.48;;;5.70;;
69765;SDS011;57039;48.014;21.384;2023-02-01T01:36:57;9.88;;;4.30;;
69765;SDS011;57039;48.014;21.384;2023-02-01T01:38:00;10.37;;;4.93;;
69765;SDS011;57039;48.014;21.384;2023-02-01T01:39:03;12.52;;;4.62;;
69765;SDS011;57039;48.014;21.384;2023-02-01T01:40:06;14.18;;;5.35;;
69765;SDS011;57039;48.014;21.384;2023-02-01T01:41:12;97.10;;;34.58;;
69765;SDS011;57039;48.014;21.384;2023-02-01T01:42:16;88.37;;;33.78;;
69765;SDS011;57039;48.014;21.384;2023-02-01T01:43:19;54.97;;;21.58;;
69765;SDS011;57039;48.014;21.384;2023-02-01T01:45:46;35.97;;;14.90;;
69765;SDS011;57039;48.014;21.384;2023-02-01T01:46:48;19.35;;;7.78;;
69765;SDS011;57039;48.014;21.384;2023-02-01T01:47:58;13.98;;;5.68;;
69765;SDS011;57039;48.014;21.384;2023-02-01T01:50:05;10.82;;;4.53;;
69765;SDS011;57039;48.014;21.384;2023-02-01T01:51:10;9.60;;;3.90;;
69765;SDS011;57039;48.014;21.384;2023-02-01T01:52:14;12.95;;;4.82;;
69765;SDS011;57039;48.014;21.384;2023-02-01T01:53:19;11.88;;;4.25;;
69765;SDS011;57039;48.014;21.384;2023-02-01T01:55:25;9.18;;;4.50;;
69765;SDS011;57039;48.014;21.384;2023-02-01T01:56:29;19.35;;;8.90;;
69765;SDS011;57039;48.014;21.384;2023-02-01T01:57:36;12.95;;;5.03;;
69765;SDS011;57039;48.014;21.384;2023-02-01T01:58:40;13.45;;;4.97;;
69765;SDS011;57039;48.014;21.384;2023-02-01T01:59:43;10.63;;;5.20;;
69765;SDS011;57039;48.014;21.384;2023-02-01T02:00:48;11.43;;;5.05;;
69765;SDS011;57039;48.014;21.384;2023-02-01T02:01:51;15.13;;;5.22;;
69765;SDS011;57039;48.014;21.384;2023-02-01T02:02:57;10.30;;;4.40;;
69765;SDS011;57039;48.014;21.384;2023-02-01T02:04:00;11.98;;;4.55;;
69765;SDS011;57039;48.014;21.384;2023-02-01T02:05:03;13.13;;;4.55;;
69765;SDS011;57039;48.014;21.384;2023-02-01T02:06:10;12.50;;;4.78;;
69765;SDS011;57039;48.014;21.384;2023-02-01T02:07:17;10.73;;;4.68;;
69765;SDS011;57039;48.014;21.384;2023-02-01T02:08:22;12.40;;;4.07;;
69765;SDS011;57039;48.014;21.384;2023-02-01T02:09:25;10.02;;;4.80;;
69765;SDS011;57039;48.014;21.384;2023-02-01T02:10:28;7.00;;;3.77;;
69765;SDS011;57039;48.014;21.384;2023-02-01T02:11:50;8.90;;;4.70;;
69765;SDS011;57039;48.014;21.384;2023-02-01T02:12:53;12.93;;;4.05;;
69765;SDS011;57039;48.014;21.384;2023-02-01T02:13:57;12.98;;;4.80;;
69765;SDS011;57039;48.014;21.384;2023-02-01T02:15:00;12.65;;;5.18;;
69765;SDS011;57039;48.014;21.384;2023-02-01T02:16:07;10.60;;;5.53;;
69765;SDS011;57039;48.014;21.384;2023-02-01T02:18:19;13.38;;;5.90;;
69765;SDS011;57039;48.014;21.384;2023-02-01T02:20:30;14.27;;;5.65;;
69765;SDS011;57039;48.014;21.384;2023-02-01T02:25:25;8.93;;;4.55;;
69765;SDS011;57039;48.014;21.384;2023-02-01T02:29:17;16.67;;;5.55;;
69765;SDS011;57039;48.014;21.384;2023-02-01T02:31:37;8.77;;;4.15;;
69765;SDS011;57039;48.014;21.384;2023-02-01T02:34:10;9.27;;;5.40;;
69765;SDS011;57039;48.014;21.384;2023-02-01T02:35:21;12.27;;;5.32;;
69765;SDS011;57039;48.014;21.384;2023-02-01T02:43:44;11.68;;;3.92;;
69765;SDS011;57039;48.014;21.384;2023-02-01T02:45:17;9.15;;;4.40;;
69765;SDS011;57039;48.014;21.384;2023-02-01T02:46:44;12.15;;;5.43;;
69765;SDS011;57039;48.014;21.384;2023-02-01T02:52:33;10.75;;;4.50;;
69765;SDS011;57039;48.014;21.384;2023-02-01T02:54:12;10.77;;;4.70;;
69765;SDS011;57039;48.014;21.384;2023-02-01T02:55:49;10.30;;;4.72;;
69765;SDS011;57039;48.014;21.384;2023-02-01T02:57:07;10.82;;;4.70;;
69765;SDS011;57039;48.014;21.384;2023-02-01T02:58:44;7.18;;;3.97;;
69765;SDS011;57039;48.014;21.384;2023-02-01T03:00:22;13.30;;;4.93;;
69765;SDS011;57039;48.014;21.384;2023-02-01T03:01:59;10.95;;;5.70;;
69765;SDS011;57039;48.014;21.384;2023-02-01T03:03:36;9.30;;;4.17;;
69765;SDS011;57039;48.014;21.384;2023-02-01T03:05:12;14.10;;;4.87;;
69765;SDS011;57039;48.014;21.384;2023-02-01T03:06:16;13.25;;;4.22;;
69765;SDS011;57039;48.014;21.384;2023-02-01T03:09:01;13.15;;;4.53;;
69765;SDS011;57039;48.014;21.384;2023-02-01T03:10:35;11.38;;;4.85;;
69765;SDS011;57039;48.014;21.384;2023-02-01T03:11:57;8.15;;;4.07;;
69765;SDS011;57039;48.014;21.384;2023-02-01T03:15:10;10.05;;;4.47;;
69765;SDS011;57039;48.014;21.384;2023-02-01T03:16:28;9.32;;;5.10;;
69765;SDS011;57039;48.014;21.384;2023-02-01T03:17:34;8.90;;;3.83;;
69765;SDS011;57039;48.014;21.384;2023-02-01T03:19:43;9.43;;;3.85;;
69765;SDS011;57039;48.014;21.384;2023-02-01T03:20:50;9.23;;;4.10;;
69765;SDS011;57039;48.014;21.384;2023-02-01T03:22:07;13.55;;;4.60;;
69765;SDS011;57039;48.014;21.384;2023-02-01T03:23:10;9.98;;;4.78;;
69765;SDS011;57039;48.014;21.384;2023-02-01T03:24:16;11.45;;;4.93;;
69765;SDS011;57039;48.014;21.384;2023-02-01T03:25:27;9.25;;;4.90;;
69765;SDS011;57039;48.014;21.384;2023-02-01T03:26:31;10.85;;;4.62;;
69765;SDS011;57039;48.014;21.384;2023-02-01T03:27:49;10.20;;;4.82;;
69765;SDS011;57039;48.014;21.384;2023-02-01T03:28:55;14.43;;;4.23;;
69765;SDS011;57039;48.014;21.384;2023-02-01T03:31:05;10.73;;;4.10;;
69765;SDS011;57039;48.014;21.384;2023-02-01T03:32:08;11.93;;;4.50;;
69765;SDS011;57039;48.014;21.384;2023-02-01T03:33:13;10.93;;;4.07;;
69765;SDS011;57039;48.014;21.384;2023-02-01T03:34:25;10.15;;;3.72;;
69765;SDS011;57039;48.014;21.384;2023-02-01T03:35:39;11.40;;;3.42;;
69765;SDS011;57039;48.014;21.384;2023-02-01T03:36:46;8.75;;;4.43;;
69765;SDS011;57039;48.014;21.384;2023-02-01T03:37:51;14.23;;;5.00;;
69765;SDS011;57039;48.014;21.384;2023-02-01T03:39:02;11.25;;;4.75;;
69765;SDS011;57039;48.014;21.384;2023-02-01T03:40:07;11.80;;;5.33;;
69765;SDS011;57039;48.014;21.384;2023-02-01T03:42:31;10.90;;;4.22;;
69765;SDS011;57039;48.014;21.384;2023-02-01T03:43:42;9.68;;;4.47;;
69765;SDS011;57039;48.014;21.384;2023-02-01T03:44:51;32.53;;;11.23;;
69765;SDS011;57039;48.014;21.384;2023-02-01T03:46:00;26.27;;;9.00;;
69765;SDS011;57039;48.014;21.384;2023-02-01T03:47:05;18.37;;;6.65;;
69765;SDS011;57039;48.014;21.384;2023-02-01T03:48:10;14.93;;;5.47;;
69765;SDS011;57039;48.014;21.384;2023-02-01T03:49:28;8.90;;;4.62;;
69765;SDS011;57039;48.014;21.384;2023-02-01T03:50:31;12.52;;;4.28;;
69765;SDS011;57039;48.014;21.384;2023-02-01T03:51:36;14.60;;;4.33;;
69765;SDS011;57039;48.014;21.384;2023-02-01T03:52:42;9.80;;;4.10;;
69765;SDS011;57039;48.014;21.384;2023-02-01T03:53:45;12.65;;;4.82;;
69765;SDS011;57039;48.014;21.384;2023-02-01T03:54:51;11.75;;;4.28;;
69765;SDS011;57039;48.014;21.384;2023-02-01T03:55:54;12.27;;;5.05;;
69765;SDS011;57039;48.014;21.384;2023-02-01T03:56:58;9.02;;;4.97;;
69765;SDS011;57039;48.014;21.384;2023-02-01T03:59:13;13.32;;;6.20;;
69765;SDS011;57039;48.014;21.384;2023-02-01T04:00:18;12.75;;;6.65;;
69765;SDS011;57039;48.014;21.384;2023-02-01T04:01:33;14.77;;;6.20;;
69765;SDS011;57039;48.014;21.384;2023-02-01T04:02:35;19.53;;;7.73;;
69765;SDS011;57039;48.014;21.384;2023-02-01T04:03:38;29.27;;;11.75;;
69765;SDS011;57039;48.014;21.384;2023-02-01T04:04:40;32.35;;;14.13;;
69765;SDS011;57039;48.014;21.384;2023-02-01T04:05:44;33.63;;;13.18;;
69765;SDS011;57039;48.014;21.384;2023-02-01T04:06:47;24.42;;;11.50;;
69765;SDS011;57039;48.014;21.384;2023-02-01T04:07:49;22.98;;;11.35;;
69765;SDS011;57039;48.014;21.384;2023-02-01T04:08:52;21.02;;;8.85;;
69765;SDS011;57039;48.014;21.384;2023-02-01T04:09:54;17.12;;;8.48;;
69765;SDS011;57039;48.014;21.384;2023-02-01T04:10:57;13.75;;;6.68;;
69765;SDS011;57039;48.014;21.384;2023-02-01T04:12:00;15.32;;;7.85;;
69765;SDS011;57039;48.014;21.384;2023-02-01T04:13:02;16.60;;;8.13;;
69765;SDS011;57039;48.014;21.384;2023-02-01T04:14:05;11.43;;;6.12;;
69765;SDS011;57039;48.014;21.384;2023-02-01T04:15:07;12.37;;;6.40;;
69765;SDS011;57039;48.014;21.384;2023-02-01T04:16:10;15.05;;;5.87;;
69765;SDS011;57039;48.014;21.384;2023-02-01T04:17:12;12.60;;;5.80;;
69765;SDS011;57039;48.014;21.384;2023-02-01T04:18:15;12.35;;;6.00;;
69765;SDS011;57039;48.014;21.384;2023-02-01T04:19:18;13.13;;;6.07;;
69765;SDS011;57039;48.014;21.384;2023-02-01T04:20:20;11.88;;;5.93;;
69765;SDS011;57039;48.014;21.384;2023-02-01T04:21:23;17.00;;;6.75;;
69765;SDS011;57039;48.014;21.384;2023-02-01T04:22:26;11.05;;;6.07;;
69765;SDS011;57039;48.014;21.384;2023-02-01T04:23:28;14.27;;;6.37;;
69765;SDS011;57039;48.014;21.384;2023-02-01T04:24:31;55.55;;;24.63;;
69765;SDS011;57039;48.014;21.384;2023-02-01T04:25:33;30.77;;;14.60;;
69765;SDS011;57039;48.014;21.384;2023-02-01T04:26:36;15.95;;;7.37;;
69765;SDS011;57039;48.014;21.384;2023-02-01T04:27:39;13.30;;;6.93;;
69765;SDS011;57039;48.014;21.384;2023-02-01T04:28:44;17.62;;;8.10;;
69765;SDS011;57039;48.014;21.384;2023-02-01T04:29:49;17.15;;;6.90;;
69765;SDS011;57039;48.014;21.384;2023-02-01T04:30:52;18.02;;;7.87;;
69765;SDS011;57039;48.014;21.384;2023-02-01T04:31:54;19.08;;;7.75;;
69765;SDS011;57039;48.014;21.384;2023-02-01T04:32:57;15.65;;;7.60;;
69765;SDS011;57039;48.014;21.384;2023-02-01T04:33:59;22.23;;;7.80;;
69765;SDS011;57039;48.014;21.384;2023-02-01T04:35:02;18.20;;;7.95;;
69765;SDS011;57039;48.014;21.384;2023-02-01T04:36:05;16.67;;;8.18;;
69765;SDS011;57039;48.014;21.384;2023-02-01T04:37:07;16.12;;;7.65;;
69765;SDS011;57039;48.014;21.384;2023-02-01T04:38:10;16.95;;;7.90;;
69765;SDS011;57039;48.014;21.384;2023-02-01T04:39:12;19.95;;;9.25;;
69765;SDS011;57039;48.014;21.384;2023-02-01T04:40:15;22.25;;;10.48;;
69765;SDS011;57039;48.014;21.384;2023-02-01T04:41:17;31.08;;;13.73;;
69765;SDS011;57039;48.014;21.384;2023-02-01T04:42:20;59.13;;;24.25;;
69765;SDS011;57039;48.014;21.384;2023-02-01T04:43:24;65.28;;;27.02;;
69765;SDS011;57039;48.014;21.384;2023-02-01T04:44:26;59.50;;;23.93;;
69765;SDS011;57039;48.014;21.384;2023-02-01T04:45:29;49.50;;;17.90;;
69765;SDS011;57039;48.014;21.384;2023-02-01T04:46:31;22.90;;;9.70;;
69765;SDS011;57039;48.014;21.384;2023-02-01T04:47:34;21.27;;;8.35;;
69765;SDS011;57039;48.014;21.384;2023-02-01T04:48:37;15.10;;;7.75;;
69765;SDS011;57039;48.014;21.384;2023-02-01T04:49:39;16.62;;;7.80;;
69765;SDS011;57039;48.014;21.384;2023-02-01T04:50:42;17.95;;;8.23;;
69765;SDS011;57039;48.014;21.384;2023-02-01T04:51:47;23.10;;;10.70;;
69765;SDS011;57039;48.014;21.384;2023-02-01T04:52:49;31.35;;;13.32;;
69765;SDS011;57039;48.014;21.384;2023-02-01T04:53:52;27.37;;;11.73;;
69765;SDS011;57039;48.014;21.384;2023-02-01T04:54:54;22.33;;;10.30;;
69765;SDS011;57039;48.014;21.384;2023-02-01T04:56:00;21.17;;;9.35;;
69765;SDS011;57039;48.014;21.384;2023-02-01T04:57:03;20.00;;;10.27;;
69765;SDS011;57039;48.014;21.384;2023-02-01T04:58:05;22.50;;;11.02;;
69765;SDS011;57039;48.014;21.384;2023-02-01T04:59:09;26.60;;;12.20;;
69765;SDS011;57039;48.014;21.384;2023-02-01T05:00:12;33.10;;;13.82;;
69765;SDS011;57039;48.014;21.384;2023-02-01T05:01:15;27.05;;;10.43;;
69765;SDS011;57039;48.014;21.384;2023-02-01T05:02:17;21.05;;;9.60;;
69765;SDS011;57039;48.014;21.384;2023-02-01T05:03:20;22.15;;;10.75;;
69765;SDS011;57039;48.014;21.384;2023-02-01T05:04:23;23.27;;;9.05;;
69765;SDS011;57039;48.014;21.384;2023-02-01T05:06:41;22.48;;;9.77;;
69765;SDS011;57039;48.014;21.384;2023-02-01T05:07:45;24.65;;;9.52;;
69765;SDS011;57039;48.014;21.384;2023-02-01T05:08:47;19.92;;;9.13;;
69765;SDS011;57039;48.014;21.384;2023-02-01T05:09:50;19.92;;;9.25;;
69765;SDS011;57039;48.014;21.384;2023-02-01T05:10:53;18.20;;;9.32;;
69765;SDS011;57039;48.014;21.384;2023-02-01T05:11:55;20.10;;;9.25;;
69765;SDS011;57039;48.014;21.384;2023-02-01T05:13:16;20.50;;;10.00;;
69765;SDS011;57039;48.014;21.384;2023-02-01T05:14:37;20.05;;;9.73;;
69765;SDS011;57039;48.014;21.384;2023-02-01T05:15:40;23.70;;;11.15;;
69765;SDS011;57039;48.014;21.384;2023-02-01T05:16:43;22.10;;;9.77;;
69765;SDS011;57039;48.014;21.384;2023-02-01T05:17:45;23.62;;;10.82;;
69765;SDS011;57039;48.014;21.384;2023-02-01T05:18:48;22.98;;;10.98;;
69765;SDS011;57039;48.014;21.384;2023-02-01T05:19:50;25.92;;;11.43;;
69765;SDS011;57039;48.014;21.384;2023-02-01T05:22:09;23.08;;;10.18;;
69765;SDS011;57039;48.014;21.384;2023-02-01T05:23:11;19.65;;;9.65;;
69765;SDS011;57039;48.014;21.384;2023-02-01T05:24:13;23.90;;;10.10;;
69765;SDS011;57039;48.014;21.384;2023-02-01T05:27:36;20.27;;;9.75;;
69765;SDS011;57039;48.014;21.384;2023-02-01T05:28:39;18.27;;;9.07;;
69765;SDS011;57039;48.014;21.384;2023-02-01T05:29:41;22.10;;;9.95;;
69765;SDS011;57039;48.014;21.384;2023-02-01T05:30:50;25.50;;;13.38;;
69765;SDS011;57039;48.014;21.384;2023-02-01T05:31:53;27.60;;;15.70;;
69765;SDS011;57039;48.014;21.384;2023-02-01T05:32:55;22.20;;;11.90;;
69765;SDS011;57039;48.014;21.384;2023-02-01T05:33:59;27.05;;;11.35;;
69765;SDS011;57039;48.014;21.384;2023-02-01T05:35:01;30.83;;;14.87;;
69765;SDS011;57039;48.014;21.384;2023-02-01T05:36:04;42.33;;;16.62;;
69765;SDS011;57039;48.014;21.384;2023-02-01T05:37:08;41.60;;;21.62;;
69765;SDS011;57039;48.014;21.384;2023-02-01T05:38:10;33.40;;;15.80;;
69765;SDS011;57039;48.014;21.384;2023-02-01T05:39:13;48.60;;;22.73;;
69765;SDS011;57039;48.014;21.384;2023-02-01T05:40:18;27.33;;;14.30;;
69765;SDS011;57039;48.014;21.384;2023-02-01T05:41:20;21.48;;;12.00;;
69765;SDS011;57039;48.014;21.384;2023-02-01T05:42:23;23.33;;;11.52;;
69765;SDS011;57039;48.014;21.384;2023-02-01T05:43:26;23.30;;;12.80;;
69765;SDS011;57039;48.014;21.384;2023-02-01T05:44:28;27.80;;;12.98;;
69765;SDS011;57039;48.014;21.384;2023-02-01T05:45:31;24.87;;;12.60;;
69765;SDS011;57039;48.014;21.384;2023-02-01T05:46:34;19.95;;;11.52;;
69765;SDS011;57039;48.014;21.384;2023-02-01T05:47:36;29.23;;;15.82;;
69765;SDS011;57039;48.014;21.384;2023-02-01T05:48:39;27.02;;;14.43;;
69765;SDS011;57039;48.014;21.384;2023-02-01T05:49:43;44.93;;;22.97;;
69765;SDS011;57039;48.014;21.384;2023-02-01T05:50:45;41.90;;;21.80;;
69765;SDS011;57039;48.014;21.384;2023-02-01T05:51:48;49.80;;;22.85;;
69765;SDS011;57039;48.014;21.384;2023-02-01T05:52:50;45.10;;;21.27;;
69765;SDS011;57039;48.014;21.384;2023-02-01T05:53:53;66.07;;;32.47;;
69765;SDS011;57039;48.014;21.384;2023-02-01T05:54:55;61.25;;;28.42;;
69765;SDS011;57039;48.014;21.384;2023-02-01T05:55:58;72.07;;;33.72;;
69765;SDS011;57039;48.014;21.384;2023-02-01T05:57:02;43.65;;;22.10;;
69765;SDS011;57039;48.014;21.384;2023-02-01T05:58:05;45.47;;;21.70;;
69765;SDS011;57039;48.014;21.384;2023-02-01T05:59:08;41.03;;;20.80;;
69765;SDS011;57039;48.014;21.384;2023-02-01T06:00:11;34.57;;;15.40;;
69765;SDS011;57039;48.014;21.384;2023-02-01T06:01:13;23.50;;;13.18;;
69765;SDS011;57039;48.014;21.384;2023-02-01T06:02:16;33.33;;;15.30;;
69765;SDS011;57039;48.014;21.384;2023-02-01T06:03:19;31.35;;;16.50;;
69765;SDS011;57039;48.014;21.384;2023-02-01T06:04:21;27.98;;;12.88;;
69765;SDS011;57039;48.014;21.384;2023-02-01T06:05:23;246.93;;;101.95;;
69765;SDS011;57039;48.014;21.384;2023-02-01T06:06:26;277.70;;;116.10;;
69765;SDS011;57039;48.014;21.384;2023-02-01T06:07:29;213.70;;;96.22;;
69765;SDS011;57039;48.014;21.384;2023-02-01T06:08:32;105.60;;;45.90;;
69765;SDS011;57039;48.014;21.384;2023-02-01T06:09:35;75.57;;;36.28;;
69765;SDS011;57039;48.014;21.384;2023-02-01T06:10:37;49.73;;;25.37;;
69765;SDS011;57039;48.014;21.384;2023-02-01T06:11:39;44.60;;;22.30;;
69765;SDS011;57039;48.014;21.384;2023-02-01T06:12:43;44.03;;;21.60;;
69765;SDS011;57039;48.014;21.384;2023-02-01T06:13:49;45.53;;;24.30;;
69765;SDS011;57039;48.014;21.384;2023-02-01T06:14:52;38.95;;;20.20;;
69765;SDS011;57039;48.014;21.384;2023-02-01T06:15:54;38.97;;;19.75;;
69765;SDS011;57039;48.014;21.384;2023-02-01T06:16:58;32.35;;;17.33;;
69765;SDS011;57039;48.014;21.384;2023-02-01T06:18:01;34.05;;;16.75;;
69765;SDS011;57039;48.014;21.384;2023-02-01T06:19:04;33.20;;;17.62;;
69765;SDS011;57039;48.014;21.384;2023-02-01T06:20:07;55.03;;;27.25;;
69765;SDS011;57039;48.014;21.384;2023-02-01T06:21:14;43.07;;;21.47;;
69765;SDS011;57039;48.014;21.384;2023-02-01T06:22:26;32.00;;;18.30;;
69765;SDS011;57039;48.014;21.384;2023-02-01T06:23:29;34.00;;;18.45;;
69765;SDS011;57039;48.014;21.384;2023-02-01T06:24:32;37.10;;;19.20;;
69765;SDS011;57039;48.014;21.384;2023-02-01T06:25:35;39.25;;;21.73;;
69765;SDS011;57039;48.014;21.384;2023-02-01T06:26:37;39.00;;;23.08;;
69765;SDS011;57039;48.014;21.384;2023-02-01T06:27:41;33.22;;;19.90;;
69765;SDS011;57039;48.014;21.384;2023-02-01T06:28:44;32.67;;;19.05;;
69765;SDS011;57039;48.014;21.384;2023-02-01T06:29:46;34.10;;;18.62;;
69765;SDS011;57039;48.014;21.384;2023-02-01T06:30:49;45.63;;;27.35;;
69765;SDS011;57039;48.014;21.384;2023-02-01T06:31:52;116.17;;;44.77;;
69765;SDS011;57039;48.014;21.384;2023-02-01T06:32:55;96.63;;;40.25;;
69765;SDS011;57039;48.014;21.384;2023-02-01T06:33:57;94.82;;;33.83;;
69765;SDS011;57039;48.014;21.384;2023-02-01T06:35:00;50.92;;;23.40;;
69765;SDS011;57039;48.014;21.384;2023-02-01T06:36:04;51.70;;;24.77;;
69765;SDS011;57039;48.014;21.384;2023-02-01T06:37:07;51.97;;;26.70;;
69765;SDS011;57039;48.014;21.384;2023-02-01T06:38:10;39.63;;;21.15;;
69765;SDS011;57039;48.014;21.384;2023-02-01T06:39:13;36.30;;;19.40;;
69765;SDS011;57039;48.014;21.384;2023-02-01T06:40:18;33.65;;;17.62;;
69765;SDS011;57039;48.014;21.384;2023-02-01T06:41:20;34.88;;;17.98;;
69765;SDS011;57039;48.014;21.384;2023-02-01T06:42:23;40.80;;;21.60;;
69765;SDS011;57039;48.014;21.384;2023-02-01T06:43:26;44.65;;;23.15;;
69765;SDS011;57039;48.014;21.384;2023-02-01T06:44:28;45.25;;;24.85;;
69765;SDS011;57039;48.014;21.384;2023-02-01T06:45:31;62.80;;;28.65;;
69765;SDS011;57039;48.014;21.384;2023-02-01T06:46:33;61.08;;;26.62;;
69765;SDS011;57039;48.014;21.384;2023-02-01T06:47:36;67.70;;;30.88;;
69765;SDS011;57039;48.014;21.384;2023-02-01T06:48:39;66.93;;;26.70;;
69765;SDS011;57039;48.014;21.384;2023-02-01T06:49:41;60.03;;;27.35;;
69765;SDS011;57039;48.014;21.384;2023-02-01T06:50:44;61.33;;;24.05;;
69765;SDS011;57039;48.014;21.384;2023-02-01T06:51:46;48.78;;;21.80;;
69765;SDS011;57039;48.014;21.384;2023-02-01T06:52:49;42.50;;;20.57;;
69765;SDS011;57039;48.014;21.384;2023-02-01T06:53:51;45.47;;;21.20;;
69765;SDS011;57039;48.014;21.384;2023-02-01T06:54:54;38.60;;;18.83;;
69765;SDS011;57039;48.014;21.384;2023-02-01T06:55:58;41.17;;;19.73;;
69765;SDS011;57039;48.014;21.384;2023-02-01T06:57:01;43.95;;;21.65;;
69765;SDS011;57039;48.014;21.384;2023-02-01T06:58:03;42.50;;;20.85;;
69765;SDS011;57039;48.014;21.384;2023-02-01T06:59:06;36.90;;;18.45;;
69765;SDS011;57039;48.014;21.384;2023-02-01T07:00:09;31.60;;;16.70;;
69765;SDS011;57039;48.014;21.384;2023-02-01T07:01:12;35.15;;;17.62;;
69765;SDS011;57039;48.014;21.384;2023-02-01T07:02:15;40.42;;;19.85;;
69765;SDS011;57039;48.014;21.384;2023-02-01T07:03:17;56.50;;;23.50;;
69765;SDS011;57039;48.014;21.384;2023-02-01T07:04:20;84.68;;;33.40;;
69765;SDS011;57039;48.014;21.384;2023-02-01T07:05:23;93.57;;;36.72;;
69765;SDS011;57039;48.014;21.384;2023-02-01T07:06:25;91.37;;;35.08;;
69765;SDS011;57039;48.014;21.384;2023-02-01T07:07:28;80.50;;;32.55;;
69765;SDS011;57039;48.014;21.384;2023-02-01T07:08:31;81.15;;;31.40;;
69765;SDS011;57039;48.014;21.384;2023-02-01T07:09:34;71.60;;;29.35;;
69765;SDS011;57039;48.014;21.384;2023-02-01T07:10:37;71.60;;;29.75;;
69765;SDS011;57039;48.014;21.384;2023-02-01T07:11:40;74.07;;;31.17;;